sensor_id;sensor_type;location;lat;lon;timestamp;P1;durP1;ratioP1;P2;durP2;ratioP2
10511;SDS011;5304;48.604;2.096;2024-02-14T00:01:35;5.10;;;4.10;;
10511;SDS011;5304;48.604;2.096;2024-02-14T00:04:20;9.20;;;4.43;;
10511;SDS011;5304;48.604;2.096;2024-02-14T00:07:05;8.97;;;4.67;;
10511;SDS011;5304;48.604;2.096;2024-02-14T00:09:49;5.93;;;3.93;;
10511;SDS011;5304;48.604;2.096;2024-02-14T00:12:34;6.17;;;4.43;;
10511;SDS011;5304;48.604;2.096;2024-02-14T00:15:19;7.23;;;4.40;;
10511;SDS011;5304;48.604;2.096;2024-02-14T00:18:03;9.03;;;4.60;;
10511;SDS011;5304;48.604;2.096;2024-02-14T00:20:47;9.27;;;4.83;;
10511;SDS011;5304;48.604;2.096;2024-02-14T00:23:32;6.07;;;4.70;;
10511;SDS011;5304;48.604;2.096;2024-02-14T00:26:16;7.57;;;4.60;;
10511;SDS011;5304;48.604;2.096;2024-02-14T00:29:01;8.67;;;4.90;;
10511;SDS011;5304;48.604;2.096;2024-02-14T00:31:46;7.87;;;5.20;;
10511;SDS011;5304;48.604;2.096;2024-02-14T00:34:30;9.13;;;5.60;;
10511;SDS011;5304;48.604;2.096;2024-02-14T00:37:15;7.57;;;5.80;;
10511;SDS011;5304;48.604;2.096;2024-02-14T00:40:00;11.67;;;5.50;;
10511;SDS011;5304;48.604;2.096;2024-02-14T00:42:45;9.67;;;6.67;;
10511;SDS011;5304;48.604;2.096;2024-02-14T00:45:29;10.03;;;5.57;;
10511;SDS011;5304;48.604;2.096;2024-02-14T00:48:14;9.87;;;6.10;;
10511;SDS011;5304;48.604;2.096;2024-02-14T00:50:58;8.30;;;5.77;;
10511;SDS011;5304;48.604;2.096;2024-02-14T00:53:43;7.13;;;5.37;;
10511;SDS011;5304;48.604;2.096;2024-02-14T00:56:27;7.90;;;5.50;;
10511;SDS011;5304;48.604;2.096;2024-02-14T00:59:11;9.83;;;6.17;;
10511;SDS011;5304;48.604;2.096;2024-02-14T01:01:56;9.47;;;6.70;;
10511;SDS011;5304;48.604;2.096;2024-02-14T01:04:40;10.00;;;6.37;;
10511;SDS011;5304;48.604;2.096;2024-02-14T01:07:24;9.00;;;5.80;;
10511;SDS011;5304;48.604;2.096;2024-02-14T01:10:09;10.60;;;6.47;;
10511;SDS011;5304;48.604;2.096;2024-02-14T01:12:53;9.17;;;6.00;;
10511;SDS011;5304;48.604;2.096;2024-02-14T01:15:37;11.23;;;7.00;;
10511;SDS011;5304;48.604;2.096;2024-02-14T01:18:21;9.03;;;6.57;;
10511;SDS011;5304;48.604;2.096;2024-02-14T01:21:06;11.37;;;6.77;;
10511;SDS011;5304;48.604;2.096;2024-02-14T01:23:50;9.83;;;6.00;;
10511;SDS011;5304;48.604;2.096;2024-02-14T01:26:36;11.67;;;6.60;;
10511;SDS011;5304;48.604;2.096;2024-02-14T01:29:20;7.67;;;6.00;;
10511;SDS011;5304;48.604;2.096;2024-02-14T01:32:04;11.93;;;6.43;;
10511;SDS011;5304;48.604;2.096;2024-02-14T01:34:50;10.43;;;7.50;;
10511;SDS011;5304;48.604;2.096;2024-02-14T01:37:34;10.17;;;7.87;;
10511;SDS011;5304;48.604;2.096;2024-02-14T01:40:19;12.00;;;7.07;;
10511;SDS011;5304;48.604;2.096;2024-02-14T01:43:04;11.13;;;6.70;;
10511;SDS011;5304;48.604;2.096;2024-02-14T01:45:48;12.90;;;7.80;;
10511;SDS011;5304;48.604;2.096;2024-02-14T01:48:33;10.43;;;7.07;;
10511;SDS011;5304;48.604;2.096;2024-02-14T01:51:18;11.77;;;7.93;;
10511;SDS011;5304;48.604;2.096;2024-02-14T01:54:08;14.97;;;7.90;;
10511;SDS011;5304;48.604;2.096;2024-02-14T01:56:53;13.97;;;7.93;;
10511;SDS011;5304;48.604;2.096;2024-02-14T01:59:39;12.73;;;7.80;;
10511;SDS011;5304;48.604;2.096;2024-02-14T02:02:25;11.97;;;8.40;;
10511;SDS011;5304;48.604;2.096;2024-02-14T02:05:10;12.17;;;7.07;;
10511;SDS011;5304;48.604;2.096;2024-02-14T02:07:55;14.00;;;7.93;;
10511;SDS011;5304;48.604;2.096;2024-02-14T02:10:39;14.30;;;8.70;;
10511;SDS011;5304;48.604;2.096;2024-02-14T02:13:24;13.53;;;8.90;;
10511;SDS011;5304;48.604;2.096;2024-02-14T02:16:09;12.70;;;8.63;;
10511;SDS011;5304;48.604;2.096;2024-02-14T02:18:53;17.00;;;8.63;;
10511;SDS011;5304;48.604;2.096;2024-02-14T02:21:38;14.20;;;8.30;;
10511;SDS011;5304;48.604;2.096;2024-02-14T02:24:22;10.13;;;7.50;;
10511;SDS011;5304;48.604;2.096;2024-02-14T02:27:07;14.20;;;7.77;;
10511;SDS011;5304;48.604;2.096;2024-02-14T02:29:51;11.67;;;9.27;;
10511;SDS011;5304;48.604;2.096;2024-02-14T02:32:36;12.50;;;7.70;;
10511;SDS011;5304;48.604;2.096;2024-02-14T02:35:21;14.27;;;8.93;;
10511;SDS011;5304;48.604;2.096;2024-02-14T02:38:08;12.80;;;8.47;;
10511;SDS011;5304;48.604;2.096;2024-02-14T02:40:52;11.70;;;7.50;;
10511;SDS011;5304;48.604;2.096;2024-02-14T02:43:36;15.33;;;8.77;;
10511;SDS011;5304;48.604;2.096;2024-02-14T02:46:20;13.63;;;8.27;;
10511;SDS011;5304;48.604;2.096;2024-02-14T02:49:06;11.17;;;7.77;;
10511;SDS011;5304;48.604;2.096;2024-02-14T02:51:51;14.87;;;8.37;;
10511;SDS011;5304;48.604;2.096;2024-02-14T02:54:36;11.03;;;7.10;;
10511;SDS011;5304;48.604;2.096;2024-02-14T02:57:24;12.40;;;8.23;;
10511;SDS011;5304;48.604;2.096;2024-02-14T03:00:10;11.27;;;7.77;;
10511;SDS011;5304;48.604;2.096;2024-02-14T03:02:56;12.13;;;8.20;;
10511;SDS011;5304;48.604;2.096;2024-02-14T03:05:40;18.13;;;8.67;;
10511;SDS011;5304;48.604;2.096;2024-02-14T03:08:25;12.40;;;8.53;;
10511;SDS011;5304;48.604;2.096;2024-02-14T03:11:09;12.87;;;8.80;;
10511;SDS011;5304;48.604;2.096;2024-02-14T03:13:54;12.17;;;7.80;;
10511;SDS011;5304;48.604;2.096;2024-02-14T03:16:38;12.67;;;9.07;;
10511;SDS011;5304;48.604;2.096;2024-02-14T03:19:22;16.40;;;8.43;;
10511;SDS011;5304;48.604;2.096;2024-02-14T03:22:07;12.77;;;7.73;;
10511;SDS011;5304;48.604;2.096;2024-02-14T03:24:52;11.70;;;7.90;;
10511;SDS011;5304;48.604;2.096;2024-02-14T03:27:36;11.93;;;7.23;;
10511;SDS011;5304;48.604;2.096;2024-02-14T03:30:20;12.43;;;7.50;;
10511;SDS011;5304;48.604;2.096;2024-02-14T03:33:06;11.40;;;7.77;;
10511;SDS011;5304;48.604;2.096;2024-02-14T03:35:51;11.47;;;8.60;;
10511;SDS011;5304;48.604;2.096;2024-02-14T03:38:36;15.83;;;8.00;;
10511;SDS011;5304;48.604;2.096;2024-02-14T03:41:20;15.20;;;9.07;;
10511;SDS011;5304;48.604;2.096;2024-02-14T03:44:04;12.53;;;8.57;;
10511;SDS011;5304;48.604;2.096;2024-02-14T03:46:50;15.90;;;8.73;;
10511;SDS011;5304;48.604;2.096;2024-02-14T03:49:34;15.57;;;9.03;;
10511;SDS011;5304;48.604;2.096;2024-02-14T03:52:19;13.23;;;7.53;;
10511;SDS011;5304;48.604;2.096;2024-02-14T03:55:04;18.07;;;9.37;;
10511;SDS011;5304;48.604;2.096;2024-02-14T03:57:49;13.40;;;8.93;;
10511;SDS011;5304;48.604;2.096;2024-02-14T04:00:34;16.90;;;9.13;;
10511;SDS011;5304;48.604;2.096;2024-02-14T04:03:18;14.83;;;9.73;;
10511;SDS011;5304;48.604;2.096;2024-02-14T04:06:03;16.30;;;9.77;;
10511;SDS011;5304;48.604;2.096;2024-02-14T04:08:47;15.20;;;9.37;;
10511;SDS011;5304;48.604;2.096;2024-02-14T04:11:32;17.87;;;9.87;;
10511;SDS011;5304;48.604;2.096;2024-02-14T04:14:17;15.50;;;9.13;;
10511;SDS011;5304;48.604;2.096;2024-02-14T04:17:01;15.60;;;9.30;;
10511;SDS011;5304;48.604;2.096;2024-02-14T04:19:46;16.17;;;9.70;;
10511;SDS011;5304;48.604;2.096;2024-02-14T04:22:30;18.80;;;9.20;;
10511;SDS011;5304;48.604;2.096;2024-02-14T04:25:14;15.40;;;9.37;;
10511;SDS011;5304;48.604;2.096;2024-02-14T04:27:58;19.67;;;9.47;;
10511;SDS011;5304;48.604;2.096;2024-02-14T04:30:43;14.43;;;9.20;;
10511;SDS011;5304;48.604;2.096;2024-02-14T04:33:27;13.87;;;8.23;;
10511;SDS011;5304;48.604;2.096;2024-02-14T04:36:13;17.97;;;8.80;;
10511;SDS011;5304;48.604;2.096;2024-02-14T04:38:58;16.70;;;10.27;;
10511;SDS011;5304;48.604;2.096;2024-02-14T04:41:42;13.20;;;9.37;;
10511;SDS011;5304;48.604;2.096;2024-02-14T04:44:27;16.17;;;8.50;;
10511;SDS011;5304;48.604;2.096;2024-02-14T04:47:12;12.90;;;8.33;;
10511;SDS011;5304;48.604;2.096;2024-02-14T04:49:56;12.63;;;9.17;;
10511;SDS011;5304;48.604;2.096;2024-02-14T04:52:41;11.03;;;7.83;;
10511;SDS011;5304;48.604;2.096;2024-02-14T04:55:25;10.40;;;7.37;;
10511;SDS011;5304;48.604;2.096;2024-02-14T04:58:10;11.23;;;7.83;;
10511;SDS011;5304;48.604;2.096;2024-02-14T05:00:54;10.60;;;7.63;;
10511;SDS011;5304;48.604;2.096;2024-02-14T05:03:41;11.00;;;7.80;;
10511;SDS011;5304;48.604;2.096;2024-02-14T05:06:25;12.60;;;8.17;;
10511;SDS011;5304;48.604;2.096;2024-02-14T05:09:10;12.63;;;8.07;;
10511;SDS011;5304;48.604;2.096;2024-02-14T05:11:54;12.53;;;8.77;;
10511;SDS011;5304;48.604;2.096;2024-02-14T05:14:39;14.60;;;8.60;;
10511;SDS011;5304;48.604;2.096;2024-02-14T05:17:23;13.80;;;8.70;;
10511;SDS011;5304;48.604;2.096;2024-02-14T05:20:08;11.90;;;8.70;;
10511;SDS011;5304;48.604;2.096;2024-02-14T05:22:52;14.97;;;10.07;;
10511;SDS011;5304;48.604;2.096;2024-02-14T05:25:37;17.37;;;9.80;;
10511;SDS011;5304;48.604;2.096;2024-02-14T05:28:21;16.50;;;10.27;;
10511;SDS011;5304;48.604;2.096;2024-02-14T05:31:05;15.70;;;9.07;;
10511;SDS011;5304;48.604;2.096;2024-02-14T05:33:50;17.00;;;10.17;;
10511;SDS011;5304;48.604;2.096;2024-02-14T05:36:34;15.73;;;10.03;;
10511;SDS011;5304;48.604;2.096;2024-02-14T05:39:18;17.87;;;9.77;;
10511;SDS011;5304;48.604;2.096;2024-02-14T05:42:02;17.90;;;10.23;;
10511;SDS011;5304;48.604;2.096;2024-02-14T05:44:48;17.30;;;10.27;;
10511;SDS011;5304;48.604;2.096;2024-02-14T05:47:33;18.63;;;9.93;;
10511;SDS011;5304;48.604;2.096;2024-02-14T05:50:17;15.83;;;9.73;;
10511;SDS011;5304;48.604;2.096;2024-02-14T05:53:03;14.77;;;10.23;;
10511;SDS011;5304;48.604;2.096;2024-02-14T05:55:47;17.37;;;9.27;;
10511;SDS011;5304;48.604;2.096;2024-02-14T05:58:32;18.90;;;9.53;;
10511;SDS011;5304;48.604;2.096;2024-02-14T06:01:16;15.47;;;9.37;;
10511;SDS011;5304;48.604;2.096;2024-02-14T06:04:03;14.67;;;9.50;;
10511;SDS011;5304;48.604;2.096;2024-02-14T06:06:47;17.17;;;9.90;;
10511;SDS011;5304;48.604;2.096;2024-02-14T06:09:32;12.43;;;9.27;;
10511;SDS011;5304;48.604;2.096;2024-02-14T06:12:16;14.63;;;10.30;;
10511;SDS011;5304;48.604;2.096;2024-02-14T06:15:00;16.07;;;9.87;;
10511;SDS011;5304;48.604;2.096;2024-02-14T06:17:45;15.87;;;10.20;;
10511;SDS011;5304;48.604;2.096;2024-02-14T06:20:29;14.60;;;9.53;;
10511;SDS011;5304;48.604;2.096;2024-02-14T06:23:13;14.97;;;8.57;;
10511;SDS011;5304;48.604;2.096;2024-02-14T06:25:58;12.83;;;9.13;;
10511;SDS011;5304;48.604;2.096;2024-02-14T06:28:43;13.90;;;9.33;;
10511;SDS011;5304;48.604;2.096;2024-02-14T06:31:28;14.43;;;8.83;;
10511;SDS011;5304;48.604;2.096;2024-02-14T06:34:11;13.53;;;9.37;;
10511;SDS011;5304;48.604;2.096;2024-02-14T06:36:56;14.47;;;8.90;;
10511;SDS011;5304;48.604;2.096;2024-02-14T06:39:40;16.63;;;9.57;;
10511;SDS011;5304;48.604;2.096;2024-02-14T06:42:24;14.43;;;9.20;;
10511;SDS011;5304;48.604;2.096;2024-02-14T06:45:10;16.23;;;9.57;;
10511;SDS011;5304;48.604;2.096;2024-02-14T06:47:54;13.70;;;9.57;;
10511;SDS011;5304;48.604;2.096;2024-02-14T06:50:38;16.00;;;9.87;;
10511;SDS011;5304;48.604;2.096;2024-02-14T06:53:23;17.57;;;10.33;;
10511;SDS011;5304;48.604;2.096;2024-02-14T06:56:07;18.37;;;9.60;;
10511;SDS011;5304;48.604;2.096;2024-02-14T06:58:51;13.83;;;9.03;;
10511;SDS011;5304;48.604;2.096;2024-02-14T07:01:39;15.87;;;8.83;;
10511;SDS011;5304;48.604;2.096;2024-02-14T07:04:23;12.97;;;8.37;;
10511;SDS011;5304;48.604;2.096;2024-02-14T07:07:09;14.50;;;9.00;;
10511;SDS011;5304;48.604;2.096;2024-02-14T07:09:53;13.47;;;8.90;;
10511;SDS011;5304;48.604;2.096;2024-02-14T07:12:37;12.80;;;8.93;;
10511;SDS011;5304;48.604;2.096;2024-02-14T07:15:22;11.53;;;8.20;;
10511;SDS011;5304;48.604;2.096;2024-02-14T07:18:09;12.57;;;8.17;;
10511;SDS011;5304;48.604;2.096;2024-02-14T07:20:53;13.93;;;8.40;;
10511;SDS011;5304;48.604;2.096;2024-02-14T07:23:37;14.83;;;8.47;;
10511;SDS011;5304;48.604;2.096;2024-02-14T07:26:21;12.23;;;7.93;;
10511;SDS011;5304;48.604;2.096;2024-02-14T07:29:06;14.07;;;8.03;;
10511;SDS011;5304;48.604;2.096;2024-02-14T07:31:51;19.20;;;8.37;;
10511;SDS011;5304;48.604;2.096;2024-02-14T07:34:37;14.40;;;8.77;;
10511;SDS011;5304;48.604;2.096;2024-02-14T07:37:23;12.70;;;8.53;;
10511;SDS011;5304;48.604;2.096;2024-02-14T07:40:07;13.70;;;7.37;;
10511;SDS011;5304;48.604;2.096;2024-02-14T07:42:52;12.13;;;7.17;;
10511;SDS011;5304;48.604;2.096;2024-02-14T07:45:36;13.40;;;7.67;;
10511;SDS011;5304;48.604;2.096;2024-02-14T07:48:20;11.03;;;6.80;;
10511;SDS011;5304;48.604;2.096;2024-02-14T07:51:08;14.43;;;7.10;;
10511;SDS011;5304;48.604;2.096;2024-02-14T07:53:52;11.53;;;7.57;;
10511;SDS011;5304;48.604;2.096;2024-02-14T07:56:37;18.03;;;6.90;;
10511;SDS011;5304;48.604;2.096;2024-02-14T07:59:21;11.40;;;7.00;;
10511;SDS011;5304;48.604;2.096;2024-02-14T08:02:05;11.13;;;7.00;;
10511;SDS011;5304;48.604;2.096;2024-02-14T08:04:49;10.73;;;7.60;;
10511;SDS011;5304;48.604;2.096;2024-02-14T08:07:34;13.43;;;7.97;;
10511;SDS011;5304;48.604;2.096;2024-02-14T08:10:18;14.80;;;8.17;;
10511;SDS011;5304;48.604;2.096;2024-02-14T08:13:02;11.40;;;7.07;;
10511;SDS011;5304;48.604;2.096;2024-02-14T08:15:47;10.97;;;7.07;;
10511;SDS011;5304;48.604;2.096;2024-02-14T08:18:33;13.00;;;7.00;;
10511;SDS011;5304;48.604;2.096;2024-02-14T08:21:17;9.40;;;6.90;;
10511;SDS011;5304;48.604;2.096;2024-02-14T08:24:02;11.17;;;7.33;;
10511;SDS011;5304;48.604;2.096;2024-02-14T08:26:46;15.77;;;7.07;;
10511;SDS011;5304;48.604;2.096;2024-02-14T08:29:30;15.37;;;7.00;;
10511;SDS011;5304;48.604;2.096;2024-02-14T08:32:14;16.73;;;8.27;;
10511;SDS011;5304;48.604;2.096;2024-02-14T08:34:59;10.37;;;7.27;;
10511;SDS011;5304;48.604;2.096;2024-02-14T08:37:45;10.87;;;6.50;;
10511;SDS011;5304;48.604;2.096;2024-02-14T08:40:29;14.63;;;7.63;;
10511;SDS011;5304;48.604;2.096;2024-02-14T08:43:13;11.07;;;7.17;;
10511;SDS011;5304;48.604;2.096;2024-02-14T08:45:57;11.23;;;7.43;;
10511;SDS011;5304;48.604;2.096;2024-02-14T08:48:42;14.87;;;7.23;;
10511;SDS011;5304;48.604;2.096;2024-02-14T08:51:29;16.20;;;8.57;;
10511;SDS011;5304;48.604;2.096;2024-02-14T08:54:13;14.93;;;9.13;;
10511;SDS011;5304;48.604;2.096;2024-02-14T08:56:59;17.03;;;8.93;;
10511;SDS011;5304;48.604;2.096;2024-02-14T08:59:44;16.33;;;8.73;;
10511;SDS011;5304;48.604;2.096;2024-02-14T09:02:30;16.03;;;9.50;;
10511;SDS011;5304;48.604;2.096;2024-02-14T09:05:14;19.93;;;10.63;;
10511;SDS011;5304;48.604;2.096;2024-02-14T09:08:00;13.57;;;10.50;;
10511;SDS011;5304;48.604;2.096;2024-02-14T09:10:44;16.23;;;10.03;;
10511;SDS011;5304;48.604;2.096;2024-02-14T09:13:29;19.93;;;10.67;;
10511;SDS011;5304;48.604;2.096;2024-02-14T09:16:13;20.43;;;10.63;;
10511;SDS011;5304;48.604;2.096;2024-02-14T09:18:59;24.63;;;10.83;;
10511;SDS011;5304;48.604;2.096;2024-02-14T09:21:44;20.00;;;10.53;;
10511;SDS011;5304;48.604;2.096;2024-02-14T09:24:28;18.10;;;11.23;;
10511;SDS011;5304;48.604;2.096;2024-02-14T09:27:12;19.67;;;10.80;;
10511;SDS011;5304;48.604;2.096;2024-02-14T09:29:57;21.20;;;10.63;;
10511;SDS011;5304;48.604;2.096;2024-02-14T09:32:41;20.07;;;10.87;;
10511;SDS011;5304;48.604;2.096;2024-02-14T09:35:25;20.83;;;10.77;;
10511;SDS011;5304;48.604;2.096;2024-02-14T09:38:10;20.57;;;10.37;;
10511;SDS011;5304;48.604;2.096;2024-02-14T09:40:58;17.90;;;11.17;;
10511;SDS011;5304;48.604;2.096;2024-02-14T09:44:05;23.77;;;11.13;;
10511;SDS011;5304;48.604;2.096;2024-02-14T09:46:50;20.07;;;11.10;;
10511;SDS011;5304;48.604;2.096;2024-02-14T09:49:37;17.97;;;10.07;;
10511;SDS011;5304;48.604;2.096;2024-02-14T09:52:23;17.63;;;10.87;;
10511;SDS011;5304;48.604;2.096;2024-02-14T09:55:08;23.20;;;10.93;;
10511;SDS011;5304;48.604;2.096;2024-02-14T09:57:53;17.90;;;10.10;;
10511;SDS011;5304;48.604;2.096;2024-02-14T10:00:38;18.30;;;9.07;;
10511;SDS011;5304;48.604;2.096;2024-02-14T10:03:24;19.10;;;10.33;;
10511;SDS011;5304;48.604;2.096;2024-02-14T10:06:09;19.73;;;10.10;;
10511;SDS011;5304;48.604;2.096;2024-02-14T10:08:54;20.20;;;10.00;;
10511;SDS011;5304;48.604;2.096;2024-02-14T10:11:39;19.13;;;10.10;;
10511;SDS011;5304;48.604;2.096;2024-02-14T10:14:24;17.03;;;9.90;;
10511;SDS011;5304;48.604;2.096;2024-02-14T10:17:08;22.33;;;11.77;;
10511;SDS011;5304;48.604;2.096;2024-02-14T10:22:48;21.23;;;10.73;;
10511;SDS011;5304;48.604;2.096;2024-02-14T10:25:34;22.07;;;10.07;;
10511;SDS011;5304;48.604;2.096;2024-02-14T10:28:19;16.80;;;9.53;;
10511;SDS011;5304;48.604;2.096;2024-02-14T10:31:05;14.33;;;8.87;;
10511;SDS011;5304;48.604;2.096;2024-02-14T10:33:52;19.97;;;10.57;;
10511;SDS011;5304;48.604;2.096;2024-02-14T10:36:38;16.00;;;9.20;;
10511;SDS011;5304;48.604;2.096;2024-02-14T10:39:25;16.37;;;10.07;;
10511;SDS011;5304;48.604;2.096;2024-02-14T10:42:09;18.47;;;10.43;;
10511;SDS011;5304;48.604;2.096;2024-02-14T10:44:54;18.83;;;10.03;;
10511;SDS011;5304;48.604;2.096;2024-02-14T10:47:40;16.17;;;8.63;;
10511;SDS011;5304;48.604;2.096;2024-02-14T10:50:27;14.73;;;8.73;;
10511;SDS011;5304;48.604;2.096;2024-02-14T10:53:13;18.33;;;8.77;;
10511;SDS011;5304;48.604;2.096;2024-02-14T10:56:01;14.37;;;8.07;;
10511;SDS011;5304;48.604;2.096;2024-02-14T10:58:47;12.40;;;7.57;;
10511;SDS011;5304;48.604;2.096;2024-02-14T11:01:32;12.60;;;8.57;;
10511;SDS011;5304;48.604;2.096;2024-02-14T11:04:18;12.13;;;7.77;;
10511;SDS011;5304;48.604;2.096;2024-02-14T11:07:03;13.23;;;7.50;;
10511;SDS011;5304;48.604;2.096;2024-02-14T11:10:27;11.50;;;6.83;;
10511;SDS011;5304;48.604;2.096;2024-02-14T11:13:09;13.57;;;8.07;;
10511;SDS011;5304;48.604;2.096;2024-02-14T11:16:03;11.50;;;7.27;;
10511;SDS011;5304;48.604;2.096;2024-02-14T11:18:49;12.27;;;7.80;;
10511;SDS011;5304;48.604;2.096;2024-02-14T11:21:35;12.83;;;7.17;;
10511;SDS011;5304;48.604;2.096;2024-02-14T11:24:20;14.47;;;7.77;;
10511;SDS011;5304;48.604;2.096;2024-02-14T11:27:12;12.40;;;8.47;;
10511;SDS011;5304;48.604;2.096;2024-02-14T11:29:58;15.47;;;7.90;;
10511;SDS011;5304;48.604;2.096;2024-02-14T11:32:43;16.80;;;7.97;;
10511;SDS011;5304;48.604;2.096;2024-02-14T11:35:27;10.57;;;7.57;;
10511;SDS011;5304;48.604;2.096;2024-02-14T11:38:12;11.40;;;7.40;;
10511;SDS011;5304;48.604;2.096;2024-02-14T11:40:56;13.47;;;8.27;;
10511;SDS011;5304;48.604;2.096;2024-02-14T11:43:50;14.17;;;8.47;;
10511;SDS011;5304;48.604;2.096;2024-02-14T11:46:36;15.43;;;7.27;;
10511;SDS011;5304;48.604;2.096;2024-02-14T11:49:20;14.37;;;7.33;;
10511;SDS011;5304;48.604;2.096;2024-02-14T11:52:09;14.83;;;8.37;;
10511;SDS011;5304;48.604;2.096;2024-02-14T11:54:53;12.30;;;7.87;;
10511;SDS011;5304;48.604;2.096;2024-02-14T11:57:37;14.53;;;8.13;;
10511;SDS011;5304;48.604;2.096;2024-02-14T12:00:22;13.87;;;7.27;;
10511;SDS011;5304;48.604;2.096;2024-02-14T12:03:08;15.10;;;7.40;;
10511;SDS011;5304;48.604;2.096;2024-02-14T12:05:56;15.40;;;7.43;;
10511;SDS011;5304;48.604;2.096;2024-02-14T12:08:41;19.97;;;7.33;;
10511;SDS011;5304;48.604;2.096;2024-02-14T12:11:25;10.53;;;6.60;;
10511;SDS011;5304;48.604;2.096;2024-02-14T12:14:10;11.63;;;7.00;;
10511;SDS011;5304;48.604;2.096;2024-02-14T12:17:00;16.87;;;6.57;;
10511;SDS011;5304;48.604;2.096;2024-02-14T12:19:50;13.53;;;6.43;;
10511;SDS011;5304;48.604;2.096;2024-02-14T12:22:35;14.23;;;6.30;;
10511;SDS011;5304;48.604;2.096;2024-02-14T12:25:21;12.37;;;5.27;;
10511;SDS011;5304;48.604;2.096;2024-02-14T12:28:06;13.03;;;6.10;;
10511;SDS011;5304;48.604;2.096;2024-02-14T12:30:51;15.60;;;6.17;;
10511;SDS011;5304;48.604;2.096;2024-02-14T12:33:39;11.10;;;5.37;;
10511;SDS011;5304;48.604;2.096;2024-02-14T12:36:24;11.37;;;5.40;;
10511;SDS011;5304;48.604;2.096;2024-02-14T12:39:09;13.60;;;5.40;;
10511;SDS011;5304;48.604;2.096;2024-02-14T12:41:56;13.90;;;6.00;;
10511;SDS011;5304;48.604;2.096;2024-02-14T12:44:40;9.30;;;4.40;;
10511;SDS011;5304;48.604;2.096;2024-02-14T12:47:24;6.70;;;4.03;;
10511;SDS011;5304;48.604;2.096;2024-02-14T12:50:14;10.53;;;4.70;;
10511;SDS011;5304;48.604;2.096;2024-02-14T12:52:59;9.30;;;4.20;;
10511;SDS011;5304;48.604;2.096;2024-02-14T12:55:43;10.80;;;4.17;;
10511;SDS011;5304;48.604;2.096;2024-02-14T12:58:27;14.07;;;4.67;;
10511;SDS011;5304;48.604;2.096;2024-02-14T13:01:11;11.77;;;4.40;;
10511;SDS011;5304;48.604;2.096;2024-02-14T13:03:57;9.93;;;4.23;;
10511;SDS011;5304;48.604;2.096;2024-02-14T13:06:43;8.53;;;4.00;;
10511;SDS011;5304;48.604;2.096;2024-02-14T13:09:28;10.20;;;3.90;;
10511;SDS011;5304;48.604;2.096;2024-02-14T13:12:12;8.80;;;4.07;;
10511;SDS011;5304;48.604;2.096;2024-02-14T13:14:56;11.43;;;3.87;;
10511;SDS011;5304;48.604;2.096;2024-02-14T13:17:41;7.83;;;3.47;;
10511;SDS011;5304;48.604;2.096;2024-02-14T13:20:25;12.30;;;3.83;;
10511;SDS011;5304;48.604;2.096;2024-02-14T13:23:10;11.60;;;3.70;;
10511;SDS011;5304;48.604;2.096;2024-02-14T13:25:54;9.10;;;3.97;;
10511;SDS011;5304;48.604;2.096;2024-02-14T13:28:38;9.50;;;3.37;;
10511;SDS011;5304;48.604;2.096;2024-02-14T13:31:24;9.33;;;3.87;;
10511;SDS011;5304;48.604;2.096;2024-02-14T13:34:08;11.50;;;3.87;;
10511;SDS011;5304;48.604;2.096;2024-02-14T13:36:52;9.57;;;4.40;;
10511;SDS011;5304;48.604;2.096;2024-02-14T13:39:37;8.07;;;3.77;;
10511;SDS011;5304;48.604;2.096;2024-02-14T13:42:21;11.63;;;4.10;;
10511;SDS011;5304;48.604;2.096;2024-02-14T13:45:06;11.90;;;5.03;;
10511;SDS011;5304;48.604;2.096;2024-02-14T13:48:01;8.40;;;4.37;;
10511;SDS011;5304;48.604;2.096;2024-02-14T13:50:48;11.20;;;3.70;;
10511;SDS011;5304;48.604;2.096;2024-02-14T13:53:32;13.10;;;4.67;;
10511;SDS011;5304;48.604;2.096;2024-02-14T13:56:17;11.60;;;4.67;;
10511;SDS011;5304;48.604;2.096;2024-02-14T13:59:05;9.43;;;3.80;;
10511;SDS011;5304;48.604;2.096;2024-02-14T14:01:49;11.17;;;4.17;;
10511;SDS011;5304;48.604;2.096;2024-02-14T14:04:33;8.33;;;3.80;;
10511;SDS011;5304;48.604;2.096;2024-02-14T14:07:18;8.90;;;3.43;;
10511;SDS011;5304;48.604;2.096;2024-02-14T14:10:04;8.40;;;4.50;;
10511;SDS011;5304;48.604;2.096;2024-02-14T14:12:48;8.87;;;3.83;;
10511;SDS011;5304;48.604;2.096;2024-02-14T14:15:32;6.27;;;3.37;;
10511;SDS011;5304;48.604;2.096;2024-02-14T14:18:17;13.00;;;4.23;;
10511;SDS011;5304;48.604;2.096;2024-02-14T14:21:01;9.07;;;3.73;;
10511;SDS011;5304;48.604;2.096;2024-02-14T14:23:45;14.47;;;4.00;;
10511;SDS011;5304;48.604;2.096;2024-02-14T14:26:30;9.67;;;3.77;;
10511;SDS011;5304;48.604;2.096;2024-02-14T14:29:14;9.97;;;4.03;;
10511;SDS011;5304;48.604;2.096;2024-02-14T14:31:59;7.40;;;3.30;;
10511;SDS011;5304;48.604;2.096;2024-02-14T14:34:44;9.67;;;4.13;;
10511;SDS011;5304;48.604;2.096;2024-02-14T14:37:28;10.20;;;3.63;;
10511;SDS011;5304;48.604;2.096;2024-02-14T14:40:13;10.90;;;4.43;;
10511;SDS011;5304;48.604;2.096;2024-02-14T14:42:57;8.23;;;3.57;;
10511;SDS011;5304;48.604;2.096;2024-02-14T14:45:42;8.60;;;3.80;;
10511;SDS011;5304;48.604;2.096;2024-02-14T14:48:26;8.00;;;3.90;;
10511;SDS011;5304;48.604;2.096;2024-02-14T14:51:11;8.87;;;4.07;;
10511;SDS011;5304;48.604;2.096;2024-02-14T14:53:55;8.37;;;3.63;;
10511;SDS011;5304;48.604;2.096;2024-02-14T14:56:39;12.37;;;4.17;;
10511;SDS011;5304;48.604;2.096;2024-02-14T14:59:24;10.77;;;3.70;;
10511;SDS011;5304;48.604;2.096;2024-02-14T15:02:08;12.77;;;5.73;;
10511;SDS011;5304;48.604;2.096;2024-02-14T15:04:53;10.20;;;5.20;;
10511;SDS011;5304;48.604;2.096;2024-02-14T15:07:38;8.77;;;4.07;;
10511;SDS011;5304;48.604;2.096;2024-02-14T15:10:22;10.87;;;4.53;;
10511;SDS011;5304;48.604;2.096;2024-02-14T15:13:07;10.90;;;4.30;;
10511;SDS011;5304;48.604;2.096;2024-02-14T15:15:52;17.43;;;5.93;;
10511;SDS011;5304;48.604;2.096;2024-02-14T15:18:37;10.77;;;4.53;;
10511;SDS011;5304;48.604;2.096;2024-02-14T15:21:21;13.33;;;4.80;;
10511;SDS011;5304;48.604;2.096;2024-02-14T15:24:06;10.53;;;4.30;;
10511;SDS011;5304;48.604;2.096;2024-02-14T15:26:50;12.73;;;3.70;;
10511;SDS011;5304;48.604;2.096;2024-02-14T15:29:43;9.27;;;3.60;;
10511;SDS011;5304;48.604;2.096;2024-02-14T15:32:46;9.90;;;3.60;;
10511;SDS011;5304;48.604;2.096;2024-02-14T15:35:50;8.77;;;3.33;;
10511;SDS011;5304;48.604;2.096;2024-02-14T15:38:35;11.93;;;3.53;;
10511;SDS011;5304;48.604;2.096;2024-02-14T15:41:19;11.73;;;3.97;;
10511;SDS011;5304;48.604;2.096;2024-02-14T15:44:03;8.57;;;3.70;;
10511;SDS011;5304;48.604;2.096;2024-02-14T15:46:49;10.53;;;3.73;;
10511;SDS011;5304;48.604;2.096;2024-02-14T15:49:33;12.57;;;5.70;;
10511;SDS011;5304;48.604;2.096;2024-02-14T15:52:19;14.53;;;6.17;;
10511;SDS011;5304;48.604;2.096;2024-02-14T15:55:04;11.97;;;4.93;;
10511;SDS011;5304;48.604;2.096;2024-02-14T15:57:51;10.57;;;4.37;;
10511;SDS011;5304;48.604;2.096;2024-02-14T16:00:35;8.30;;;4.33;;
10511;SDS011;5304;48.604;2.096;2024-02-14T16:03:20;9.17;;;3.43;;
10511;SDS011;5304;48.604;2.096;2024-02-14T16:06:04;7.77;;;2.87;;
10511;SDS011;5304;48.604;2.096;2024-02-14T16:08:49;7.90;;;3.50;;
10511;SDS011;5304;48.604;2.096;2024-02-14T16:11:35;11.87;;;4.60;;
10511;SDS011;5304;48.604;2.096;2024-02-14T16:14:19;9.43;;;3.87;;
10511;SDS011;5304;48.604;2.096;2024-02-14T16:17:04;8.77;;;3.50;;
10511;SDS011;5304;48.604;2.096;2024-02-14T16:19:48;11.33;;;3.40;;
10511;SDS011;5304;48.604;2.096;2024-02-14T16:22:33;14.00;;;3.90;;
10511;SDS011;5304;48.604;2.096;2024-02-14T16:25:17;10.30;;;4.20;;
10511;SDS011;5304;48.604;2.096;2024-02-14T16:28:04;7.07;;;3.47;;
10511;SDS011;5304;48.604;2.096;2024-02-14T16:30:49;5.47;;;3.47;;
10511;SDS011;5304;48.604;2.096;2024-02-14T16:33:35;13.43;;;4.50;;
10511;SDS011;5304;48.604;2.096;2024-02-14T16:36:19;7.87;;;3.60;;
10511;SDS011;5304;48.604;2.096;2024-02-14T16:39:04;13.37;;;3.93;;